createdAt,value
2023-03-12T00:00:13.322Z,5.20
2023-03-12T00:02:41.270Z,5.27
2023-03-12T00:05:09.817Z,5.27
2023-03-12T00:07:38.585Z,4.50
2023-03-12T00:10:08.322Z,5.93
2023-03-12T00:12:37.667Z,5.43
2023-03-12T00:15:06.420Z,5.60
2023-03-12T00:17:34.359Z,5.60
2023-03-12T00:20:02.483Z,5.80
2023-03-12T00:22:30.426Z,6.10
2023-03-12T00:24:58.556Z,5.50
2023-03-12T00:27:28.742Z,5.37
2023-03-12T00:29:58.140Z,6.00
2023-03-12T00:32:26.203Z,6.27
2023-03-12T00:34:56.029Z,6.03
2023-03-12T00:37:24.182Z,6.37
2023-03-12T00:39:52.355Z,6.00
2023-03-12T00:42:20.366Z,5.77
2023-03-12T00:44:48.320Z,5.90
2023-03-12T00:47:17.633Z,6.83
2023-03-12T00:49:45.553Z,6.20
2023-03-12T00:52:13.484Z,6.10
2023-03-12T00:54:41.408Z,6.90
2023-03-12T00:57:09.345Z,6.33
2023-03-12T00:59:40.287Z,6.77
2023-03-12T01:02:08.392Z,6.30
2023-03-12T01:04:37.662Z,6.40
2023-03-12T01:07:05.933Z,6.30
2023-03-12T01:09:33.859Z,6.30
2023-03-12T01:12:01.828Z,6.40
2023-03-12T01:14:29.795Z,7.40
2023-03-12T01:16:57.694Z,6.50
2023-03-12T01:19:25.629Z,6.80
2023-03-12T01:21:54.881Z,6.67
2023-03-12T01:24:22.814Z,7.60
2023-03-12T01:26:50.799Z,6.93
2023-03-12T01:29:18.745Z,6.90
2023-03-12T01:31:46.723Z,7.57
2023-03-12T01:34:14.826Z,7.47
2023-03-12T01:36:45.013Z,7.30
2023-03-12T01:39:14.586Z,7.40
2023-03-12T01:41:42.542Z,7.27
2023-03-12T01:44:15.207Z,7.90
2023-03-12T01:46:45.703Z,7.90
2023-03-12T01:49:17.209Z,8.37
2023-03-12T01:51:50.097Z,7.60
2023-03-12T01:54:23.744Z,8.80
2023-03-12T01:56:52.441Z,8.57
2023-03-12T01:59:24.084Z,7.67
2023-03-12T02:01:52.534Z,8.87
2023-03-12T02:04:23.752Z,8.30
2023-03-12T02:06:58.923Z,8.07
2023-03-12T02:09:28.297Z,8.67
2023-03-12T02:11:56.359Z,8.47
2023-03-12T02:14:24.445Z,8.97
2023-03-12T02:16:54.036Z,9.30
2023-03-12T02:19:31.069Z,8.33
2023-03-12T02:22:00.835Z,8.47
2023-03-12T02:24:37.123Z,9.30
2023-03-12T02:27:07.770Z,9.10
2023-03-12T02:29:38.483Z,9.07
2023-03-12T02:32:08.969Z,9.50
2023-03-12T02:34:36.939Z,9.30
2023-03-12T02:37:04.885Z,9.10
2023-03-12T02:39:32.844Z,9.67
2023-03-12T02:42:01.477Z,9.60
2023-03-12T02:44:33.326Z,9.20
2023-03-12T02:47:03.007Z,9.17
2023-03-12T02:49:33.392Z,9.37
2023-03-12T02:52:01.858Z,9.70
2023-03-12T02:54:30.156Z,8.73
2023-03-12T02:56:58.202Z,10.80
2023-03-12T02:59:26.994Z,8.70
2023-03-12T03:01:57.846Z,8.87
2023-03-12T03:04:26.863Z,9.50
2023-03-12T03:06:55.060Z,9.30
2023-03-12T03:09:23.097Z,9.83
2023-03-12T03:11:51.549Z,8.80
2023-03-12T03:14:19.856Z,10.73
2023-03-12T03:16:47.763Z,10.93
2023-03-12T03:19:17.052Z,10.17
2023-03-12T03:21:44.998Z,10.13
2023-03-12T03:24:13.074Z,10.90
2023-03-12T03:26:41.348Z,10.00
2023-03-12T03:29:09.241Z,9.60
2023-03-12T03:31:37.188Z,10.10
2023-03-12T03:34:05.206Z,9.20
2023-03-12T03:36:34.471Z,9.43
2023-03-12T03:39:02.367Z,8.30
2023-03-12T03:41:30.267Z,9.33
2023-03-12T03:43:59.249Z,7.93
2023-03-12T03:46:27.700Z,8.53
2023-03-12T03:48:55.617Z,8.50
2023-03-12T03:51:23.617Z,8.20
2023-03-12T03:53:52.857Z,8.90
2023-03-12T03:56:21.230Z,8.30
2023-03-12T03:58:49.191Z,8.47
2023-03-12T04:01:17.384Z,9.07
2023-03-12T04:03:45.353Z,8.50
2023-03-12T04:06:13.680Z,9.50
2023-03-12T04:08:41.586Z,8.37
2023-03-12T04:11:13.461Z,8.53
2023-03-12T04:13:41.460Z,8.10
2023-03-12T04:16:09.766Z,8.73
2023-03-12T04:18:38.664Z,8.07
2023-03-12T04:21:08.358Z,8.57
2023-03-12T04:23:36.977Z,8.67
2023-03-12T04:26:06.123Z,8.53
2023-03-12T04:28:36.088Z,8.50
2023-03-12T04:31:06.871Z,9.10
2023-03-12T04:33:40.532Z,9.07
2023-03-12T04:36:09.228Z,9.10
2023-03-12T04:38:37.330Z,8.90
2023-03-12T04:41:07.308Z,8.43
2023-03-12T04:43:36.864Z,8.10
2023-03-12T04:46:06.092Z,8.37
2023-03-12T04:48:34.701Z,8.40
2023-03-12T04:51:03.284Z,7.80
2023-03-12T04:53:31.434Z,8.60
2023-03-12T04:55:59.466Z,8.27
2023-03-12T04:58:27.512Z,9.17
2023-03-12T05:00:56.856Z,8.93
2023-03-12T05:03:24.929Z,9.37
2023-03-12T05:05:52.925Z,9.30
2023-03-12T05:08:20.869Z,8.40
2023-03-12T05:10:48.797Z,9.13
2023-03-12T05:13:17.620Z,8.77
2023-03-12T05:15:45.795Z,9.20
2023-03-12T05:18:15.485Z,8.23
2023-03-12T05:20:43.494Z,8.97
2023-03-12T05:23:11.445Z,8.97
2023-03-12T05:25:41.251Z,8.57
2023-03-12T05:28:09.988Z,9.30
2023-03-12T05:30:37.937Z,9.80
2023-03-12T05:33:05.851Z,9.50
2023-03-12T05:35:35.125Z,9.17
2023-03-12T05:38:03.084Z,9.40
2023-03-12T05:40:31.534Z,9.97
2023-03-12T05:42:59.487Z,9.90
2023-03-12T05:45:27.484Z,9.83
2023-03-12T05:47:55.412Z,9.73
2023-03-12T05:50:23.843Z,9.80
2023-03-12T05:52:53.221Z,10.10
2023-03-12T05:55:21.148Z,9.07
2023-03-12T05:57:49.043Z,9.23
2023-03-12T06:00:17.940Z,9.77
2023-03-12T06:02:45.978Z,10.47
2023-03-12T06:05:14.592Z,8.80
2023-03-12T06:07:42.512Z,9.43
2023-03-12T06:10:12.895Z,10.87
2023-03-12T06:12:41.458Z,9.47
2023-03-12T06:15:10.468Z,9.67
2023-03-12T06:17:38.434Z,10.10
2023-03-12T06:20:07.611Z,10.27
2023-03-12T06:22:35.717Z,9.60
2023-03-12T06:25:04.121Z,11.23
2023-03-12T06:27:33.694Z,10.67
2023-03-12T06:30:01.616Z,11.17
2023-03-12T06:32:29.797Z,10.60
2023-03-12T06:35:00.356Z,11.90
2023-03-12T06:37:28.362Z,10.83
2023-03-12T06:39:56.289Z,10.17
2023-03-12T06:42:26.440Z,9.97
2023-03-12T06:44:55.690Z,11.20
2023-03-12T06:47:23.726Z,10.77
2023-03-12T06:49:51.683Z,11.40
2023-03-12T06:52:19.748Z,10.70
2023-03-12T06:54:47.673Z,12.00
2023-03-12T06:57:16.562Z,10.57
2023-03-12T06:59:44.686Z,10.17
2023-03-12T07:02:14.253Z,10.83
2023-03-12T07:04:42.220Z,12.13
2023-03-12T07:07:11.910Z,10.63
2023-03-12T07:09:39.855Z,11.27
2023-03-12T07:12:08.333Z,10.93
2023-03-12T07:14:36.249Z,11.13
2023-03-12T07:17:04.558Z,11.53
2023-03-12T07:19:33.839Z,12.10
2023-03-12T07:22:02.007Z,11.20
2023-03-12T07:24:29.927Z,11.30
2023-03-12T07:26:57.846Z,10.63
2023-03-12T07:29:25.735Z,11.00
2023-03-12T07:31:53.652Z,11.27
2023-03-12T07:34:21.705Z,10.77
2023-03-12T07:36:51.182Z,10.80
2023-03-12T07:39:19.207Z,10.83
2023-03-12T07:41:47.127Z,10.83
2023-03-12T07:44:15.008Z,9.90
2023-03-12T07:46:43.332Z,9.80
2023-03-12T07:49:11.256Z,10.57
2023-03-12T07:51:39.678Z,10.00
2023-03-12T07:54:08.968Z,9.10
2023-03-12T07:56:37.178Z,10.03
2023-03-12T07:59:05.662Z,9.07
2023-03-12T08:01:34.092Z,9.43
2023-03-12T08:04:02.958Z,8.83
2023-03-12T08:06:31.123Z,8.97
2023-03-12T08:08:59.054Z,9.03
2023-03-12T08:11:30.190Z,8.57
2023-03-12T08:13:58.082Z,8.00
2023-03-12T08:16:26.043Z,7.90
2023-03-12T08:18:54.001Z,7.97
2023-03-12T08:21:22.003Z,7.60
2023-03-12T08:23:49.981Z,7.83
2023-03-12T08:26:17.926Z,7.10
2023-03-12T08:28:47.214Z,8.20
2023-03-12T08:31:15.192Z,7.40
2023-03-12T08:33:43.640Z,6.87
2023-03-12T08:36:11.982Z,7.03
2023-03-12T08:38:40.205Z,6.77
2023-03-12T08:41:08.169Z,6.80
2023-03-12T08:43:36.079Z,6.53
2023-03-12T08:46:05.800Z,6.67
2023-03-12T08:48:34.452Z,6.13
2023-03-12T08:51:04.232Z,6.83
2023-03-12T08:53:33.768Z,6.53
2023-03-12T08:56:01.876Z,6.87
2023-03-12T08:58:30.105Z,6.60
2023-03-12T09:00:58.743Z,7.57
2023-03-12T09:03:28.197Z,6.20
2023-03-12T09:06:09.636Z,6.37
2023-03-12T09:08:37.566Z,5.60
2023-03-12T09:11:05.759Z,6.43
2023-03-12T09:13:55.525Z,6.93
2023-03-12T09:16:21.629Z,6.83
2023-03-12T09:18:50.948Z,6.20
2023-03-12T09:21:19.040Z,6.00
2023-03-12T09:23:47.163Z,6.23
2023-03-12T09:26:15.534Z,6.53
2023-03-12T09:28:44.906Z,6.43
2023-03-12T09:31:13.732Z,6.33
2023-03-12T09:33:41.676Z,6.50
2023-03-12T09:36:11.284Z,6.93
2023-03-12T09:38:39.310Z,6.97
2023-03-12T09:41:13.990Z,5.80
2023-03-12T09:43:48.328Z,5.73
2023-03-12T09:46:21.038Z,6.20
2023-03-12T09:48:50.436Z,5.87
2023-03-12T09:51:23.292Z,5.77
2023-03-12T09:53:54.402Z,6.60
2023-03-12T09:56:23.416Z,5.80
2023-03-12T09:58:54.572Z,5.93
2023-03-12T10:01:36.456Z,6.03
2023-03-12T10:04:19.280Z,5.37
2023-03-12T10:06:53.223Z,5.47
2023-03-12T10:09:39.578Z,5.83
2023-03-12T10:12:16.750Z,6.13
2023-03-12T10:14:57.066Z,5.40
2023-03-12T10:17:40.382Z,4.73
2023-03-12T10:20:51.922Z,5.30
2023-03-12T10:23:31.231Z,4.67
2023-03-12T10:26:04.584Z,5.40
2023-03-12T10:28:37.642Z,4.90
2023-03-12T10:31:08.523Z,5.47
2023-03-12T10:33:45.953Z,5.90
2023-03-12T10:36:18.549Z,5.20
2023-03-12T10:38:49.572Z,5.37
2023-03-12T10:41:20.634Z,5.23
2023-03-12T10:43:48.549Z,5.60
2023-03-12T10:46:46.755Z,5.00
2023-03-12T10:49:41.873Z,5.33
2023-03-12T10:52:17.402Z,4.90
2023-03-12T10:54:48.686Z,5.50
2023-03-12T10:57:17.085Z,4.80
2023-03-12T10:59:47.647Z,4.70
2023-03-12T11:02:34.140Z,5.30
2023-03-12T11:05:03.571Z,5.43
2023-03-12T11:07:33.228Z,5.47
2023-03-12T11:10:17.052Z,4.90
2023-03-12T11:12:55.632Z,5.27
2023-03-12T11:15:25.719Z,5.33
2023-03-12T11:17:53.920Z,5.03
2023-03-12T11:20:30.028Z,4.93
2023-03-12T11:22:58.201Z,5.00
2023-03-12T11:25:29.810Z,5.90
2023-03-12T11:28:02.253Z,5.50
2023-03-12T11:30:36.269Z,5.90
2023-03-12T11:33:04.784Z,5.30
2023-03-12T11:35:46.380Z,5.50
2023-03-12T11:38:19.370Z,4.87
2023-03-12T11:41:06.513Z,4.80
2023-03-12T11:43:46.698Z,5.13
2023-03-12T11:46:28.158Z,5.03
2023-03-12T11:49:05.574Z,5.43
2023-03-12T11:51:41.952Z,5.07
2023-03-12T11:54:48.395Z,5.27
2023-03-12T11:57:29.370Z,4.90
2023-03-12T12:00:12.556Z,4.57
2023-03-12T12:03:14.060Z,4.50
2023-03-12T12:05:56.517Z,5.30
2023-03-12T12:08:42.884Z,4.60
2023-03-12T12:11:16.952Z,4.30
2023-03-12T12:14:00.806Z,4.10
2023-03-12T12:16:45.468Z,4.40
2023-03-12T12:19:23.833Z,4.00
2023-03-12T12:22:09.230Z,3.73
2023-03-12T12:24:51.660Z,4.10
2023-03-12T12:27:22.350Z,4.57
2023-03-12T12:30:08.506Z,3.80
2023-03-12T12:32:59.011Z,4.00
2023-03-12T12:35:34.512Z,3.83
2023-03-12T12:38:10.620Z,4.30
2023-03-12T12:40:42.567Z,3.50
2023-03-12T12:43:27.914Z,3.70
2023-03-12T12:46:00.338Z,3.23
2023-03-12T12:48:33.221Z,3.23
2023-03-12T12:51:02.275Z,3.33
2023-03-12T12:53:38.516Z,3.20
2023-03-12T12:56:16.456Z,2.80
2023-03-12T12:59:06.842Z,2.80
2023-03-12T13:01:37.232Z,2.63
2023-03-12T13:04:10.632Z,2.70
2023-03-12T13:06:58.431Z,2.63
2023-03-12T13:09:39.263Z,2.87
2023-03-12T13:12:21.943Z,3.10
2023-03-12T13:14:50.810Z,2.43
2023-03-12T13:17:29.825Z,2.60
2023-03-12T13:20:14.467Z,2.90
2023-03-12T13:22:56.312Z,2.67
2023-03-12T13:25:48.337Z,3.50
2023-03-12T13:28:34.751Z,3.37
2023-03-12T13:31:03.811Z,2.90
2023-03-12T13:33:42.335Z,3.30
2023-03-12T13:36:24.267Z,2.90
2023-03-12T13:38:58.740Z,4.20
2023-03-12T13:41:36.492Z,4.10
2023-03-12T13:44:30.371Z,3.17
2023-03-12T13:47:00.042Z,3.00
2023-03-12T13:49:35.735Z,3.40
2023-03-12T13:52:18.924Z,4.10
2023-03-12T13:54:49.569Z,3.40
2023-03-12T13:57:30.176Z,3.67
2023-03-12T13:59:59.481Z,3.43
2023-03-12T14:02:30.888Z,3.53
2023-03-12T14:05:07.041Z,3.73
2023-03-12T14:08:11.721Z,3.53
2023-03-12T14:10:48.715Z,3.83
2023-03-12T14:13:49.488Z,4.23
2023-03-12T14:16:23.775Z,3.90
2023-03-12T14:18:53.587Z,5.33
2023-03-12T14:21:24.722Z,3.50
2023-03-12T14:23:56.811Z,3.87
2023-03-12T14:26:28.302Z,3.03
2023-03-12T14:29:01.121Z,5.30
2023-03-12T14:31:30.908Z,4.10
2023-03-12T14:34:01.719Z,3.40
2023-03-12T14:36:39.918Z,3.20
2023-03-12T14:39:19.918Z,3.40
2023-03-12T14:41:55.296Z,3.60
2023-03-12T14:44:25.731Z,3.70
2023-03-12T14:46:58.261Z,3.80
2023-03-12T14:49:26.437Z,3.47
2023-03-12T14:51:56.835Z,3.33
2023-03-12T14:54:26.849Z,3.40
2023-03-12T14:56:54.891Z,3.90
2023-03-12T14:59:29.385Z,4.50
2023-03-12T15:02:01.712Z,4.20
2023-03-12T15:04:31.912Z,4.67
2023-03-12T15:07:04.685Z,5.20
2023-03-12T15:09:35.571Z,4.57
2023-03-12T15:12:05.033Z,4.03
2023-03-12T15:14:37.455Z,4.50
2023-03-12T15:17:07.688Z,3.80
2023-03-12T15:19:39.490Z,4.30
2023-03-12T15:22:14.500Z,4.17
2023-03-12T15:24:42.459Z,4.33
2023-03-12T15:27:32.270Z,4.10
2023-03-12T15:30:01.877Z,4.40
2023-03-12T15:32:31.746Z,3.90
2023-03-12T15:35:00.327Z,4.30
2023-03-12T15:37:37.758Z,4.13
2023-03-12T15:40:10.652Z,4.37
2023-03-12T15:42:42.146Z,4.33
2023-03-12T15:45:20.681Z,4.40
2023-03-12T15:47:49.250Z,4.63
2023-03-12T15:50:22.711Z,4.20
2023-03-12T15:53:03.703Z,4.87
2023-03-12T15:55:32.701Z,4.63
2023-03-12T15:58:01.268Z,5.40
2023-03-12T16:00:31.298Z,5.90
2023-03-12T16:03:00.626Z,5.77
2023-03-12T16:05:31.782Z,5.80
2023-03-12T16:08:11.310Z,5.60
2023-03-12T16:10:40.011Z,5.90
2023-03-12T16:13:08.360Z,6.40
2023-03-12T16:15:39.303Z,6.00
2023-03-12T16:18:12.655Z,6.30
2023-03-12T16:20:40.577Z,5.90
2023-03-12T16:23:09.985Z,5.90
2023-03-12T16:25:38.348Z,6.60
2023-03-12T16:28:07.550Z,6.30
2023-03-12T16:30:37.651Z,6.47
2023-03-12T16:33:09.122Z,6.30
2023-03-12T16:35:37.538Z,6.33
2023-03-12T16:38:05.505Z,6.90
2023-03-12T16:40:38.082Z,6.67
2023-03-12T16:43:08.952Z,7.20
2023-03-12T16:45:38.432Z,7.13
2023-03-12T16:48:07.596Z,7.20
2023-03-12T16:50:35.571Z,6.80
2023-03-12T16:53:05.596Z,7.67
2023-03-12T16:55:46.758Z,7.77
2023-03-12T16:58:18.013Z,8.50
2023-03-12T17:00:47.245Z,6.97
2023-03-12T17:03:21.207Z,7.53
2023-03-12T17:05:49.150Z,8.27
2023-03-12T17:08:17.132Z,7.80
2023-03-12T17:10:46.712Z,7.60
2023-03-12T17:13:20.800Z,7.20
2023-03-12T17:15:49.326Z,7.40
2023-03-12T17:18:17.646Z,8.07
2023-03-12T17:20:46.439Z,8.00
2023-03-12T17:23:14.777Z,7.63
2023-03-12T17:25:44.693Z,8.10
2023-03-12T17:28:15.233Z,8.63
2023-03-12T17:30:44.880Z,7.73
2023-03-12T17:33:14.835Z,7.83
2023-03-12T17:35:43.630Z,7.90
2023-03-12T17:38:13.043Z,7.77
2023-03-12T17:40:42.118Z,8.33
2023-03-12T17:43:10.142Z,8.77
2023-03-12T17:45:39.799Z,8.93
2023-03-12T17:48:08.036Z,8.60
2023-03-12T17:50:36.741Z,9.33
2023-03-12T17:53:04.888Z,9.27
2023-03-12T17:55:33.007Z,9.70
2023-03-12T17:58:02.185Z,10.07
2023-03-12T18:00:30.760Z,10.30
2023-03-12T18:03:00.106Z,10.37
2023-03-12T18:05:28.127Z,10.13
2023-03-12T18:07:56.089Z,9.70
2023-03-12T18:10:24.069Z,11.27
2023-03-12T18:12:51.959Z,11.30
2023-03-12T18:15:19.958Z,12.30
2023-03-12T18:17:49.946Z,11.90
2023-03-12T18:20:28.719Z,12.03
2023-03-12T18:23:00.264Z,13.20
2023-03-12T18:25:28.228Z,14.20
2023-03-12T18:27:56.770Z,13.37
2023-03-12T18:30:24.722Z,14.10
2023-03-12T18:32:52.696Z,14.13
2023-03-12T18:35:22.652Z,15.23
2023-03-12T18:37:51.830Z,15.03
2023-03-12T18:40:19.849Z,15.70
2023-03-12T18:42:47.760Z,15.90
2023-03-12T18:45:16.232Z,17.00
2023-03-12T18:47:45.238Z,16.47
2023-03-12T18:50:13.941Z,16.10
2023-03-12T18:52:43.219Z,16.97
2023-03-12T18:55:15.189Z,18.37
2023-03-12T18:57:43.785Z,17.27
2023-03-12T19:00:15.877Z,17.80
2023-03-12T19:02:45.419Z,17.60
2023-03-12T19:05:14.453Z,19.50
2023-03-12T19:07:43.973Z,20.17
2023-03-12T19:10:13.545Z,20.27
2023-03-12T19:12:52.028Z,19.57
2023-03-12T19:15:21.280Z,19.60
2023-03-12T19:17:49.236Z,18.80
2023-03-12T19:20:17.361Z,20.60
2023-03-12T19:22:46.786Z,22.47
2023-03-12T19:25:15.692Z,19.73
2023-03-12T19:27:43.597Z,21.30
2023-03-12T19:30:13.712Z,20.80
2023-03-12T19:32:44.046Z,22.70
2023-03-12T19:35:14.144Z,24.00
2023-03-12T19:37:42.706Z,23.50
2023-03-12T19:40:13.914Z,22.33
2023-03-12T19:42:41.837Z,23.53
2023-03-12T19:45:11.010Z,23.37
2023-03-12T19:47:38.953Z,22.40
2023-03-12T19:50:08.062Z,23.23
2023-03-12T19:52:36.021Z,22.00
2023-03-12T19:55:05.614Z,23.50
2023-03-12T19:57:35.238Z,22.73
2023-03-12T20:00:07.225Z,23.57
2023-03-12T20:02:35.358Z,23.50
2023-03-12T20:05:03.647Z,23.47
2023-03-12T20:07:31.766Z,23.97
2023-03-12T20:09:59.725Z,23.00
2023-03-12T20:12:27.657Z,22.70
2023-03-12T20:14:56.955Z,23.13
2023-03-12T20:17:25.142Z,23.20
2023-03-12T20:19:53.111Z,24.60
2023-03-12T20:22:21.034Z,25.17
2023-03-12T20:24:49.285Z,23.00
2023-03-12T20:27:17.209Z,22.10
2023-03-12T20:29:46.108Z,23.53
2023-03-12T20:32:15.443Z,23.80
2023-03-12T20:34:43.395Z,23.17
2023-03-12T20:37:11.310Z,21.40
2023-03-12T20:39:39.250Z,21.87
2023-03-12T20:42:07.237Z,23.93
2023-03-12T20:44:35.168Z,23.87
2023-03-12T20:47:03.216Z,23.17
2023-03-12T20:49:32.514Z,22.30
2023-03-12T20:52:00.439Z,22.27
2023-03-12T20:54:28.529Z,22.10
2023-03-12T20:56:56.441Z,20.40
2023-03-12T20:59:24.405Z,20.90
2023-03-12T21:01:52.354Z,20.00
2023-03-12T21:04:20.400Z,21.53
2023-03-12T21:06:51.553Z,19.87
2023-03-12T21:09:19.771Z,19.60
2023-03-12T21:11:47.883Z,20.83
2023-03-12T21:14:15.825Z,19.90
2023-03-12T21:16:43.823Z,20.63
2023-03-12T21:19:11.766Z,20.37
2023-03-12T21:21:39.698Z,17.70
2023-03-12T21:24:09.262Z,17.63
2023-03-12T21:26:37.212Z,17.10
2023-03-12T21:29:05.353Z,17.50
2023-03-12T21:31:33.260Z,16.83
2023-03-12T21:34:01.203Z,16.10
2023-03-12T21:36:30.115Z,16.00
2023-03-12T21:38:58.065Z,16.20
2023-03-12T21:41:27.367Z,16.30
2023-03-12T21:43:55.279Z,14.30
2023-03-12T21:46:24.853Z,13.67
2023-03-12T21:48:52.987Z,14.73
2023-03-12T21:51:22.596Z,14.43
2023-03-12T21:53:55.004Z,14.37
2023-03-12T21:56:25.287Z,13.37
2023-03-12T21:58:55.858Z,13.80
2023-03-12T22:01:23.899Z,14.57
2023-03-12T22:03:51.901Z,14.70
2023-03-12T22:06:20.036Z,13.63
2023-03-12T22:08:49.133Z,13.37
2023-03-12T22:11:17.779Z,12.30
2023-03-12T22:13:45.712Z,13.23
2023-03-12T22:16:15.864Z,13.70
2023-03-12T22:18:45.681Z,12.70
2023-03-12T22:21:16.022Z,13.40
2023-03-12T22:23:43.976Z,12.93
2023-03-12T22:26:11.973Z,11.67
2023-03-12T22:28:39.947Z,13.13
2023-03-12T22:31:09.663Z,13.17
2023-03-12T22:33:39.015Z,13.20
2023-03-12T22:36:08.770Z,12.50
2023-03-12T22:38:38.018Z,12.20
2023-03-12T22:41:14.020Z,13.40
2023-03-12T22:43:41.934Z,13.57
2023-03-12T22:46:09.938Z,12.90
2023-03-12T22:48:39.272Z,12.67
2023-03-12T22:51:07.574Z,12.80
2023-03-12T22:53:35.509Z,13.50
2023-03-12T22:56:05.468Z,12.87
2023-03-12T22:58:33.441Z,11.70
2023-03-12T23:01:02.226Z,11.47
2023-03-12T23:03:31.125Z,12.73
2023-03-12T23:06:01.088Z,11.53
2023-03-12T23:08:29.795Z,11.00
2023-03-12T23:10:59.606Z,10.87
2023-03-12T23:13:29.277Z,11.47
2023-03-12T23:16:02.483Z,11.53
2023-03-12T23:18:30.455Z,10.87
2023-03-12T23:21:04.265Z,9.97
2023-03-12T23:23:32.796Z,10.00
2023-03-12T23:26:02.897Z,9.67
2023-03-12T23:28:31.876Z,10.43
2023-03-12T23:31:01.733Z,10.67
2023-03-12T23:33:31.028Z,9.60
2023-03-12T23:36:00.551Z,8.77
2023-03-12T23:38:30.813Z,8.87
2023-03-12T23:41:02.117Z,10.10
2023-03-12T23:43:30.122Z,8.73
2023-03-12T23:45:58.713Z,8.73
2023-03-12T23:48:27.402Z,7.83
2023-03-12T23:50:55.449Z,8.57
2023-03-12T23:53:23.358Z,7.57
2023-03-12T23:56:00.330Z,8.33
2023-03-12T23:58:29.028Z,8.13
